sensor_id;sensor_type;location;lat;lon;timestamp;pressure;altitude;pressure_sealevel;temperature;humidity
57801;BME280;43627;42.728;23.256;2022-07-23T00:00:18;95235.56;;;19.85;69.02
57801;BME280;43627;42.728;23.256;2022-07-23T00:02:45;95242.34;;;19.90;68.94
57801;BME280;43627;42.728;23.256;2022-07-23T00:05:12;95243.03;;;19.96;69.34
57801;BME280;43627;42.728;23.256;2022-07-23T00:07:39;95248.63;;;19.90;67.55
57801;BME280;43627;42.728;23.256;2022-07-23T00:10:07;95250.19;;;19.80;67.90
57801;BME280;43627;42.728;23.256;2022-07-23T00:12:34;95250.25;;;19.75;69.07
57801;BME280;43627;42.728;23.256;2022-07-23T00:15:01;95238.22;;;19.72;68.84
57801;BME280;43627;42.728;23.256;2022-07-23T00:17:29;95247.84;;;19.60;70.13
57801;BME280;43627;42.728;23.256;2022-07-23T00:19:55;95245.41;;;19.45;69.61
57801;BME280;43627;42.728;23.256;2022-07-23T00:22:22;95246.63;;;19.50;69.42
57801;BME280;43627;42.728;23.256;2022-07-23T00:24:49;95253.19;;;19.47;69.85
57801;BME280;43627;42.728;23.256;2022-07-23T00:27:36;95242.22;;;19.35;68.98
57801;BME280;43627;42.728;23.256;2022-07-23T00:30:03;95248.44;;;19.41;70.29
57801;BME280;43627;42.728;23.256;2022-07-23T00:32:30;95253.50;;;19.43;69.84
57801;BME280;43627;42.728;23.256;2022-07-23T00:35:19;95254.25;;;19.44;69.50
57801;BME280;43627;42.728;23.256;2022-07-23T00:37:47;95253.53;;;19.32;69.16
57801;BME280;43627;42.728;23.256;2022-07-23T00:40:13;95246.56;;;19.25;69.14
57801;BME280;43627;42.728;23.256;2022-07-23T00:42:40;95248.56;;;19.25;69.56
57801;BME280;43627;42.728;23.256;2022-07-23T00:45:07;95249.56;;;19.27;69.65
57801;BME280;43627;42.728;23.256;2022-07-23T00:47:34;95254.38;;;19.21;69.89
57801;BME280;43627;42.728;23.256;2022-07-23T00:50:03;95243.06;;;19.19;70.84
57801;BME280;43627;42.728;23.256;2022-07-23T00:52:31;95237.84;;;19.16;71.58
57801;BME280;43627;42.728;23.256;2022-07-23T00:54:58;95256.88;;;19.25;71.03
57801;BME280;43627;42.728;23.256;2022-07-23T00:57:25;95246.03;;;19.27;69.52
57801;BME280;43627;42.728;23.256;2022-07-23T00:59:54;95243.28;;;19.27;70.96
57801;BME280;43627;42.728;23.256;2022-07-23T01:02:21;95247.25;;;19.31;70.17
57801;BME280;43627;42.728;23.256;2022-07-23T01:04:48;95251.03;;;19.34;70.10
57801;BME280;43627;42.728;23.256;2022-07-23T01:07:15;95252.25;;;19.38;69.73
57801;BME280;43627;42.728;23.256;2022-07-23T01:09:44;95260.25;;;19.42;68.45
57801;BME280;43627;42.728;23.256;2022-07-23T01:12:12;95249.56;;;19.27;68.95
57801;BME280;43627;42.728;23.256;2022-07-23T01:14:39;95250.09;;;19.20;69.63
57801;BME280;43627;42.728;23.256;2022-07-23T01:17:05;95250.09;;;19.20;69.33
57801;BME280;43627;42.728;23.256;2022-07-23T01:19:32;95251.66;;;19.16;69.22
57801;BME280;43627;42.728;23.256;2022-07-23T01:22:01;95239.88;;;19.09;69.48
57801;BME280;43627;42.728;23.256;2022-07-23T01:24:29;95249.41;;;19.08;70.10
57801;BME280;43627;42.728;23.256;2022-07-23T01:26:55;95254.03;;;18.89;71.56
57801;BME280;43627;42.728;23.256;2022-07-23T01:29:22;95250.13;;;18.68;73.15
57801;BME280;43627;42.728;23.256;2022-07-23T01:31:49;95240.13;;;18.48;75.38
57801;BME280;43627;42.728;23.256;2022-07-23T01:34:16;95242.91;;;18.37;76.26
57801;BME280;43627;42.728;23.256;2022-07-23T01:36:42;95234.16;;;18.27;77.50
57801;BME280;43627;42.728;23.256;2022-07-23T01:39:09;95247.72;;;18.25;77.91
57801;BME280;43627;42.728;23.256;2022-07-23T01:41:36;95251.00;;;18.12;79.15
57801;BME280;43627;42.728;23.256;2022-07-23T01:44:03;95240.47;;;17.99;80.26
57801;BME280;43627;42.728;23.256;2022-07-23T01:46:30;95254.78;;;17.98;80.59
57801;BME280;43627;42.728;23.256;2022-07-23T01:48:56;95247.53;;;17.95;81.48
57801;BME280;43627;42.728;23.256;2022-07-23T01:51:24;95240.50;;;17.94;82.00
57801;BME280;43627;42.728;23.256;2022-07-23T01:53:50;95251.56;;;17.83;82.93
57801;BME280;43627;42.728;23.256;2022-07-23T01:56:17;95248.53;;;17.86;83.01
57801;BME280;43627;42.728;23.256;2022-07-23T01:58:48;95241.75;;;17.87;82.96
57801;BME280;43627;42.728;23.256;2022-07-23T02:01:14;95247.50;;;17.89;82.79
57801;BME280;43627;42.728;23.256;2022-07-23T02:03:41;95258.31;;;17.82;82.99
57801;BME280;43627;42.728;23.256;2022-07-23T02:06:08;95246.53;;;17.76;82.93
57801;BME280;43627;42.728;23.256;2022-07-23T02:08:34;95251.03;;;17.79;82.92
57801;BME280;43627;42.728;23.256;2022-07-23T02:11:01;95256.06;;;17.75;83.07
57801;BME280;43627;42.728;23.256;2022-07-23T02:13:28;95253.06;;;17.73;82.89
57801;BME280;43627;42.728;23.256;2022-07-23T02:15:59;95260.06;;;17.62;82.52
57801;BME280;43627;42.728;23.256;2022-07-23T02:18:26;95247.00;;;17.57;83.76
57801;BME280;43627;42.728;23.256;2022-07-23T02:20:53;95261.53;;;17.52;83.58
57801;BME280;43627;42.728;23.256;2022-07-23T02:23:20;95256.28;;;17.60;83.01
57801;BME280;43627;42.728;23.256;2022-07-23T02:25:46;95254.28;;;17.55;84.05
57801;BME280;43627;42.728;23.256;2022-07-23T02:28:14;95256.53;;;17.56;83.90
57801;BME280;43627;42.728;23.256;2022-07-23T02:30:41;95253.03;;;17.45;84.67
57801;BME280;43627;42.728;23.256;2022-07-23T02:33:08;95252.28;;;17.44;85.37
57801;BME280;43627;42.728;23.256;2022-07-23T02:35:35;95250.50;;;17.47;84.81
57801;BME280;43627;42.728;23.256;2022-07-23T02:38:01;95245.25;;;17.37;85.05
57801;BME280;43627;42.728;23.256;2022-07-23T02:40:28;95259.78;;;17.38;86.98
57801;BME280;43627;42.728;23.256;2022-07-23T02:42:55;95264.53;;;17.37;87.49
57801;BME280;43627;42.728;23.256;2022-07-23T02:45:21;95244.97;;;17.24;86.79
57801;BME280;43627;42.728;23.256;2022-07-23T02:47:48;95257.50;;;17.20;88.75
57801;BME280;43627;42.728;23.256;2022-07-23T02:50:15;95247.72;;;17.19;88.31
57801;BME280;43627;42.728;23.256;2022-07-23T02:52:41;95256.47;;;17.23;86.49
57801;BME280;43627;42.728;23.256;2022-07-23T02:55:08;95263.50;;;17.24;87.62
57801;BME280;43627;42.728;23.256;2022-07-23T02:57:35;95261.78;;;17.26;86.88
57801;BME280;43627;42.728;23.256;2022-07-23T03:00:03;95272.78;;;17.32;87.83
57801;BME280;43627;42.728;23.256;2022-07-23T03:02:30;95272.25;;;17.22;86.28
57801;BME280;43627;42.728;23.256;2022-07-23T03:04:57;95279.78;;;17.22;86.17
57801;BME280;43627;42.728;23.256;2022-07-23T03:07:24;95272.25;;;17.22;86.41
57801;BME280;43627;42.728;23.256;2022-07-23T03:09:50;95282.03;;;17.23;86.58
57801;BME280;43627;42.728;23.256;2022-07-23T03:12:17;95279.78;;;17.22;87.19
57801;BME280;43627;42.728;23.256;2022-07-23T03:14:44;95290.59;;;17.25;88.08
57801;BME280;43627;42.728;23.256;2022-07-23T03:17:10;95284.06;;;17.28;88.46
57801;BME280;43627;42.728;23.256;2022-07-23T03:19:37;95295.88;;;17.34;87.73
57801;BME280;43627;42.728;23.256;2022-07-23T03:22:05;95284.34;;;17.36;87.30
57801;BME280;43627;42.728;23.256;2022-07-23T03:24:32;95297.38;;;17.35;86.97
57801;BME280;43627;42.728;23.256;2022-07-23T03:27:18;95294.59;;;17.35;86.68
57801;BME280;43627;42.728;23.256;2022-07-23T03:29:44;95292.09;;;17.43;86.86
57801;BME280;43627;42.728;23.256;2022-07-23T03:32:11;95295.09;;;17.39;86.91
57801;BME280;43627;42.728;23.256;2022-07-23T03:34:38;95295.34;;;17.41;86.07
57801;BME280;43627;42.728;23.256;2022-07-23T03:37:05;95296.63;;;17.57;85.90
57801;BME280;43627;42.728;23.256;2022-07-23T03:39:32;95299.66;;;17.65;85.91
57801;BME280;43627;42.728;23.256;2022-07-23T03:41:59;95300.69;;;17.73;84.76
57801;BME280;43627;42.728;23.256;2022-07-23T03:44:26;95293.41;;;17.87;82.71
57801;BME280;43627;42.728;23.256;2022-07-23T03:46:52;95304.94;;;18.08;81.54
57801;BME280;43627;42.728;23.256;2022-07-23T03:49:19;95292.88;;;18.33;79.83
57801;BME280;43627;42.728;23.256;2022-07-23T03:51:46;95297.56;;;18.66;77.11
57801;BME280;43627;42.728;23.256;2022-07-23T03:54:13;95290.88;;;19.03;75.32
57801;BME280;43627;42.728;23.256;2022-07-23T03:56:40;95298.66;;;19.04;72.19
57801;BME280;43627;42.728;23.256;2022-07-23T03:59:07;95285.28;;;19.25;70.41
57801;BME280;43627;42.728;23.256;2022-07-23T04:01:34;95293.59;;;19.61;69.02
57801;BME280;43627;42.728;23.256;2022-07-23T04:04:01;95299.19;;;19.91;67.01
57801;BME280;43627;42.728;23.256;2022-07-23T04:06:28;95303.56;;;20.05;65.91
57801;BME280;43627;42.728;23.256;2022-07-23T04:08:55;95297.91;;;19.92;65.85
57801;BME280;43627;42.728;23.256;2022-07-23T04:11:22;95307.91;;;20.01;66.25
57801;BME280;43627;42.728;23.256;2022-07-23T04:13:48;95306.41;;;20.00;65.69
57801;BME280;43627;42.728;23.256;2022-07-23T04:16:15;95293.91;;;19.87;65.26
57801;BME280;43627;42.728;23.256;2022-07-23T04:18:42;95303.78;;;19.77;66.39
57801;BME280;43627;42.728;23.256;2022-07-23T04:21:08;95301.41;;;19.62;66.81
57801;BME280;43627;42.728;23.256;2022-07-23T04:23:35;95302.19;;;19.57;67.46
57801;BME280;43627;42.728;23.256;2022-07-23T04:26:02;95310.69;;;19.65;67.29
57801;BME280;43627;42.728;23.256;2022-07-23T04:28:28;95306.84;;;19.74;66.96
57801;BME280;43627;42.728;23.256;2022-07-23T04:30:56;95301.88;;;20.26;64.55
57801;BME280;43627;42.728;23.256;2022-07-23T04:33:24;95302.16;;;20.77;62.46
57801;BME280;43627;42.728;23.256;2022-07-23T04:35:51;95309.63;;;21.26;60.12
57801;BME280;43627;42.728;23.256;2022-07-23T04:38:18;95302.91;;;22.23;56.16
57801;BME280;43627;42.728;23.256;2022-07-23T04:40:45;95317.97;;;22.86;53.61
57801;BME280;43627;42.728;23.256;2022-07-23T04:43:12;95315.03;;;23.18;52.68
57801;BME280;43627;42.728;23.256;2022-07-23T04:45:39;95306.75;;;24.07;50.50
57801;BME280;43627;42.728;23.256;2022-07-23T04:48:05;95305.09;;;24.54;48.74
57801;BME280;43627;42.728;23.256;2022-07-23T04:50:32;95312.44;;;24.93;47.55
57801;BME280;43627;42.728;23.256;2022-07-23T04:52:59;95324.09;;;25.20;45.99
57801;BME280;43627;42.728;23.256;2022-07-23T04:55:25;95304.28;;;25.39;46.31
57801;BME280;43627;42.728;23.256;2022-07-23T04:57:52;95321.56;;;25.73;44.24
57801;BME280;43627;42.728;23.256;2022-07-23T05:00:19;95319.09;;;25.70;44.38
57801;BME280;43627;42.728;23.256;2022-07-23T05:02:45;95313.06;;;26.70;43.24
57801;BME280;43627;42.728;23.256;2022-07-23T05:05:12;95316.22;;;26.90;41.29
57801;BME280;43627;42.728;23.256;2022-07-23T05:07:39;95317.31;;;27.10;41.02
57801;BME280;43627;42.728;23.256;2022-07-23T05:10:06;95320.06;;;27.32;40.79
57801;BME280;43627;42.728;23.256;2022-07-23T05:12:32;95319.13;;;27.30;40.81
57801;BME280;43627;42.728;23.256;2022-07-23T05:14:59;95319.81;;;27.38;40.97
57801;BME280;43627;42.728;23.256;2022-07-23T05:17:26;95321.53;;;27.81;39.94
57801;BME280;43627;42.728;23.256;2022-07-23T05:19:52;95325.78;;;27.90;39.29
57801;BME280;43627;42.728;23.256;2022-07-23T05:22:25;95321.38;;;28.04;39.61
57801;BME280;43627;42.728;23.256;2022-07-23T05:24:52;95323.03;;;28.15;39.77
57801;BME280;43627;42.728;23.256;2022-07-23T05:27:19;95324.59;;;28.01;39.44
57801;BME280;43627;42.728;23.256;2022-07-23T05:29:45;95333.22;;;28.28;38.32
57801;BME280;43627;42.728;23.256;2022-07-23T05:32:12;95331.94;;;27.96;39.04
57801;BME280;43627;42.728;23.256;2022-07-23T05:34:39;95334.25;;;28.15;39.24
57801;BME280;43627;42.728;23.256;2022-07-23T05:37:05;95333.44;;;27.89;39.29
57801;BME280;43627;42.728;23.256;2022-07-23T05:39:32;95335.97;;;27.63;40.06
57801;BME280;43627;42.728;23.256;2022-07-23T05:41:59;95339.94;;;27.67;40.44
57801;BME280;43627;42.728;23.256;2022-07-23T05:44:26;95329.06;;;27.64;40.86
57801;BME280;43627;42.728;23.256;2022-07-23T05:47:00;95330.78;;;27.59;40.75
57801;BME280;43627;42.728;23.256;2022-07-23T05:49:26;95310.63;;;27.53;40.58
57801;BME280;43627;42.728;23.256;2022-07-23T05:51:53;95331.28;;;27.65;40.83
57801;BME280;43627;42.728;23.256;2022-07-23T05:54:20;95322.34;;;27.67;40.85
57801;BME280;43627;42.728;23.256;2022-07-23T05:56:46;95329.34;;;27.43;41.61
57801;BME280;43627;42.728;23.256;2022-07-23T05:59:13;95326.97;;;27.79;40.86
57801;BME280;43627;42.728;23.256;2022-07-23T06:01:41;95324.44;;;27.99;39.71
57801;BME280;43627;42.728;23.256;2022-07-23T06:04:08;95329.75;;;27.87;40.38
57801;BME280;43627;42.728;23.256;2022-07-23T06:06:35;95321.41;;;27.72;40.59
57801;BME280;43627;42.728;23.256;2022-07-23T06:09:02;95327.75;;;27.72;40.85
57801;BME280;43627;42.728;23.256;2022-07-23T06:11:30;95321.34;;;27.39;42.19
57801;BME280;43627;42.728;23.256;2022-07-23T06:13:57;95317.97;;;27.41;42.10
57801;BME280;43627;42.728;23.256;2022-07-23T06:16:23;95321.50;;;27.49;41.36
57801;BME280;43627;42.728;23.256;2022-07-23T06:18:50;95329.63;;;27.70;41.15
57801;BME280;43627;42.728;23.256;2022-07-23T06:21:17;95329.91;;;27.41;41.29
57801;BME280;43627;42.728;23.256;2022-07-23T06:24:03;95316.34;;;27.22;41.92
57801;BME280;43627;42.728;23.256;2022-07-23T06:26:30;95316.34;;;27.30;41.66
57801;BME280;43627;42.728;23.256;2022-07-23T06:28:57;95319.72;;;27.21;41.88
57801;BME280;43627;42.728;23.256;2022-07-23T06:31:24;95319.47;;;27.42;40.83
57801;BME280;43627;42.728;23.256;2022-07-23T06:33:51;95311.41;;;27.46;41.82
57801;BME280;43627;42.728;23.256;2022-07-23T06:36:18;95311.56;;;27.48;40.81
57801;BME280;43627;42.728;23.256;2022-07-23T06:38:46;95322.56;;;27.61;40.71
57801;BME280;43627;42.728;23.256;2022-07-23T06:41:14;95321.41;;;27.72;40.79
57801;BME280;43627;42.728;23.256;2022-07-23T06:43:40;95317.84;;;27.71;40.76
57801;BME280;43627;42.728;23.256;2022-07-23T06:46:07;95326.59;;;27.75;40.19
57801;BME280;43627;42.728;23.256;2022-07-23T06:48:34;95324.19;;;27.72;40.77
57801;BME280;43627;42.728;23.256;2022-07-23T06:51:02;95310.47;;;27.51;41.72
57801;BME280;43627;42.728;23.256;2022-07-23T06:53:29;95314.44;;;27.40;42.10
57801;BME280;43627;42.728;23.256;2022-07-23T06:55:56;95310.88;;;26.54;43.37
57801;BME280;43627;42.728;23.256;2022-07-23T06:58:23;95307.50;;;26.55;43.77
57801;BME280;43627;42.728;23.256;2022-07-23T07:00:49;95303.53;;;26.81;43.67
57801;BME280;43627;42.728;23.256;2022-07-23T07:03:17;95310.09;;;26.68;43.55
57801;BME280;43627;42.728;23.256;2022-07-23T07:05:44;95306.91;;;26.34;44.08
57801;BME280;43627;42.728;23.256;2022-07-23T07:08:11;95301.13;;;26.70;43.58
57801;BME280;43627;42.728;23.256;2022-07-23T07:10:37;95305.63;;;26.65;43.75
57801;BME280;43627;42.728;23.256;2022-07-23T07:13:04;95306.66;;;27.00;43.86
57801;BME280;43627;42.728;23.256;2022-07-23T07:15:31;95307.75;;;27.28;42.83
57801;BME280;43627;42.728;23.256;2022-07-23T07:17:57;95296.59;;;27.68;41.86
57801;BME280;43627;42.728;23.256;2022-07-23T07:20:24;95295.69;;;27.91;42.01
57801;BME280;43627;42.728;23.256;2022-07-23T07:22:51;95298.84;;;27.95;40.57
57801;BME280;43627;42.728;23.256;2022-07-23T07:25:18;95291.81;;;27.86;40.21
57801;BME280;43627;42.728;23.256;2022-07-23T07:27:46;95293.66;;;27.51;41.19
57801;BME280;43627;42.728;23.256;2022-07-23T07:30:13;95294.47;;;27.76;41.79
57801;BME280;43627;42.728;23.256;2022-07-23T07:32:40;95284.16;;;27.86;40.76
57801;BME280;43627;42.728;23.256;2022-07-23T07:35:24;95286.75;;;28.17;39.19
57801;BME280;43627;42.728;23.256;2022-07-23T07:37:51;95276.84;;;28.16;39.49
57801;BME280;43627;42.728;23.256;2022-07-23T07:40:18;95284.66;;;27.93;40.87
57801;BME280;43627;42.728;23.256;2022-07-23T07:42:50;95285.53;;;28.03;41.00
57801;BME280;43627;42.728;23.256;2022-07-23T07:45:19;95284.16;;;28.11;39.42
57801;BME280;43627;42.728;23.256;2022-07-23T07:47:46;95286.09;;;28.01;40.29
57801;BME280;43627;42.728;23.256;2022-07-23T07:50:13;95285.84;;;28.39;39.34
57801;BME280;43627;42.728;23.256;2022-07-23T07:52:40;95267.25;;;28.69;38.01
57801;BME280;43627;42.728;23.256;2022-07-23T07:55:08;95277.78;;;28.61;37.50
57801;BME280;43627;42.728;23.256;2022-07-23T07:57:36;95274.44;;;28.80;37.69
57801;BME280;43627;42.728;23.256;2022-07-23T08:00:05;95274.16;;;28.93;37.04
57801;BME280;43627;42.728;23.256;2022-07-23T08:02:47;95279.19;;;29.12;37.78
57801;BME280;43627;42.728;23.256;2022-07-23T08:05:19;95271.56;;;29.39;36.01
57801;BME280;43627;42.728;23.256;2022-07-23T08:07:53;95274.03;;;29.35;36.93
57801;BME280;43627;42.728;23.256;2022-07-23T08:10:20;95282.16;;;29.48;36.41
57801;BME280;43627;42.728;23.256;2022-07-23T08:12:48;95267.66;;;29.35;36.83
57801;BME280;43627;42.728;23.256;2022-07-23T08:15:19;95278.97;;;29.62;36.47
57801;BME280;43627;42.728;23.256;2022-07-23T08:17:47;95272.41;;;29.76;36.04
57801;BME280;43627;42.728;23.256;2022-07-23T08:20:15;95272.38;;;30.03;35.89
57801;BME280;43627;42.728;23.256;2022-07-23T08:25:30;95259.13;;;29.86;36.31
57801;BME280;43627;42.728;23.256;2022-07-23T08:27:58;95257.84;;;29.97;35.23
57801;BME280;43627;42.728;23.256;2022-07-23T08:30:26;95259.78;;;29.95;37.47
57801;BME280;43627;42.728;23.256;2022-07-23T08:33:01;95257.38;;;29.64;37.22
57801;BME280;43627;42.728;23.256;2022-07-23T08:35:30;95253.19;;;29.55;36.75
57801;BME280;43627;42.728;23.256;2022-07-23T08:37:58;95263.19;;;29.66;36.99
57801;BME280;43627;42.728;23.256;2022-07-23T08:40:27;95260.72;;;30.07;37.30
57801;BME280;43627;42.728;23.256;2022-07-23T08:42:54;95261.63;;;30.56;35.50
57801;BME280;43627;42.728;23.256;2022-07-23T08:45:23;95255.47;;;30.96;34.92
57801;BME280;43627;42.728;23.256;2022-07-23T08:47:53;95250.97;;;30.54;34.84
57801;BME280;43627;42.728;23.256;2022-07-23T08:50:21;95257.25;;;30.26;35.88
57801;BME280;43627;42.728;23.256;2022-07-23T08:52:50;95257.09;;;30.24;36.57
57801;BME280;43627;42.728;23.256;2022-07-23T08:55:18;95241.91;;;30.46;35.74
57801;BME280;43627;42.728;23.256;2022-07-23T08:57:51;95233.34;;;30.63;34.44
57801;BME280;43627;42.728;23.256;2022-07-23T09:00:19;95242.94;;;30.60;34.26
57801;BME280;43627;42.728;23.256;2022-07-23T09:02:47;95246.56;;;30.70;34.82
57801;BME280;43627;42.728;23.256;2022-07-23T09:05:15;95245.25;;;30.72;34.65
57801;BME280;43627;42.728;23.256;2022-07-23T09:10:54;95232.19;;;31.05;34.09
57801;BME280;43627;42.728;23.256;2022-07-23T09:15:56;95244.22;;;31.35;34.34
57801;BME280;43627;42.728;23.256;2022-07-23T09:21:13;95240.22;;;31.38;32.97
57801;BME280;43627;42.728;23.256;2022-07-23T09:23:49;95237.41;;;31.38;34.35
57801;BME280;43627;42.728;23.256;2022-07-23T09:31:25;95232.50;;;31.09;33.07
57801;BME280;43627;42.728;23.256;2022-07-23T09:34:07;95236.97;;;31.32;31.74
57801;BME280;43627;42.728;23.256;2022-07-23T09:36:35;95240.03;;;31.55;31.86
57801;BME280;43627;42.728;23.256;2022-07-23T09:39:02;95232.28;;;31.75;31.59
57801;BME280;43627;42.728;23.256;2022-07-23T09:41:38;95227.75;;;32.01;30.36
57801;BME280;43627;42.728;23.256;2022-07-23T09:44:23;95221.56;;;32.24;30.72
57801;BME280;43627;42.728;23.256;2022-07-23T09:46:58;95212.72;;;32.39;30.32
57801;BME280;43627;42.728;23.256;2022-07-23T09:49:25;95218.31;;;32.49;30.20
57801;BME280;43627;42.728;23.256;2022-07-23T09:51:54;95221.88;;;32.49;29.23
57801;BME280;43627;42.728;23.256;2022-07-23T09:54:39;95216.19;;;32.80;29.51
57801;BME280;43627;42.728;23.256;2022-07-23T09:57:08;95215.72;;;32.84;28.34
57801;BME280;43627;42.728;23.256;2022-07-23T09:59:42;95211.53;;;32.63;29.24
57801;BME280;43627;42.728;23.256;2022-07-23T10:02:11;95200.84;;;33.05;28.61
57801;BME280;43627;42.728;23.256;2022-07-23T10:04:39;95203.03;;;33.28;27.13
57801;BME280;43627;42.728;23.256;2022-07-23T10:07:07;95202.34;;;33.39;25.87
57801;BME280;43627;42.728;23.256;2022-07-23T10:09:38;95190.19;;;33.36;25.31
57801;BME280;43627;42.728;23.256;2022-07-23T10:12:10;95191.22;;;33.31;25.87
57801;BME280;43627;42.728;23.256;2022-07-23T10:14:49;95193.50;;;33.44;25.98
57801;BME280;43627;42.728;23.256;2022-07-23T10:17:17;95191.28;;;33.43;25.19
57801;BME280;43627;42.728;23.256;2022-07-23T10:19:44;95194.00;;;33.52;25.04
57801;BME280;43627;42.728;23.256;2022-07-23T10:22:19;95189.88;;;33.77;26.96
57801;BME280;43627;42.728;23.256;2022-07-23T10:28:04;95182.78;;;33.88;26.22
57801;BME280;43627;42.728;23.256;2022-07-23T10:30:39;95189.59;;;33.73;24.78
57801;BME280;43627;42.728;23.256;2022-07-23T10:35:53;95179.13;;;33.64;26.14
57801;BME280;43627;42.728;23.256;2022-07-23T10:38:30;95181.78;;;33.95;24.30
57801;BME280;43627;42.728;23.256;2022-07-23T10:41:02;95175.84;;;33.67;23.38
57801;BME280;43627;42.728;23.256;2022-07-23T10:43:30;95173.31;;;33.95;22.43
57801;BME280;43627;42.728;23.256;2022-07-23T10:46:29;95174.47;;;33.57;21.70
57801;BME280;43627;42.728;23.256;2022-07-23T10:57:13;95159.94;;;34.56;21.48
57801;BME280;43627;42.728;23.256;2022-07-23T11:02:28;95147.56;;;35.12;21.69
57801;BME280;43627;42.728;23.256;2022-07-23T11:05:00;95138.72;;;35.06;21.38
57801;BME280;43627;42.728;23.256;2022-07-23T11:07:27;95135.84;;;35.43;18.78
57801;BME280;43627;42.728;23.256;2022-07-23T11:09:54;95146.63;;;35.86;19.04
57801;BME280;43627;42.728;23.256;2022-07-23T11:17:24;95121.44;;;36.19;19.04
57801;BME280;43627;42.728;23.256;2022-07-23T11:22:40;95124.91;;;35.12;19.37
57801;BME280;43627;42.728;23.256;2022-07-23T11:25:29;95129.47;;;34.80;20.45
57801;BME280;43627;42.728;23.256;2022-07-23T11:28:17;95117.22;;;34.63;19.62
57801;BME280;43627;42.728;23.256;2022-07-23T11:30:47;95120.63;;;34.74;20.78
57801;BME280;43627;42.728;23.256;2022-07-23T11:35:45;95122.81;;;34.50;18.18
57801;BME280;43627;42.728;23.256;2022-07-23T11:38:21;95123.84;;;34.68;18.64
57801;BME280;43627;42.728;23.256;2022-07-23T11:40:52;95119.06;;;34.96;17.79
57801;BME280;43627;42.728;23.256;2022-07-23T11:43:21;95110.41;;;35.06;18.24
57801;BME280;43627;42.728;23.256;2022-07-23T11:45:51;95111.72;;;35.16;18.59
57801;BME280;43627;42.728;23.256;2022-07-23T11:50:46;95108.47;;;35.22;18.62
57801;BME280;43627;42.728;23.256;2022-07-23T11:53:15;95096.19;;;35.31;16.68
57801;BME280;43627;42.728;23.256;2022-07-23T11:55:47;95101.81;;;35.43;16.73
57801;BME280;43627;42.728;23.256;2022-07-23T11:58:14;95097.41;;;35.40;16.67
57801;BME280;43627;42.728;23.256;2022-07-23T12:00:41;95100.34;;;35.42;17.96
57801;BME280;43627;42.728;23.256;2022-07-23T12:03:08;95092.06;;;35.46;16.79
57801;BME280;43627;42.728;23.256;2022-07-23T12:05:36;95099.13;;;35.59;16.36
57801;BME280;43627;42.728;23.256;2022-07-23T12:08:05;95098.06;;;35.80;15.42
57801;BME280;43627;42.728;23.256;2022-07-23T12:10:40;95096.66;;;35.92;16.85
57801;BME280;43627;42.728;23.256;2022-07-23T12:13:18;95081.56;;;35.48;16.52
57801;BME280;43627;42.728;23.256;2022-07-23T12:15:49;95089.00;;;35.42;17.44
57801;BME280;43627;42.728;23.256;2022-07-23T12:18:22;95080.31;;;35.79;15.88
57801;BME280;43627;42.728;23.256;2022-07-23T12:20:52;95082.25;;;35.88;16.96
57801;BME280;43627;42.728;23.256;2022-07-23T12:23:21;95080.22;;;36.32;16.68
57801;BME280;43627;42.728;23.256;2022-07-23T12:25:50;95075.00;;;36.56;16.70
57801;BME280;43627;42.728;23.256;2022-07-23T12:28:28;95068.91;;;36.61;16.32
57801;BME280;43627;42.728;23.256;2022-07-23T12:30:56;95073.50;;;36.39;16.47
57801;BME280;43627;42.728;23.256;2022-07-23T12:33:29;95069.94;;;36.11;17.66
57801;BME280;43627;42.728;23.256;2022-07-23T12:35:58;95063.63;;;36.40;17.05
57801;BME280;43627;42.728;23.256;2022-07-23T12:38:27;95061.22;;;36.21;16.33
57801;BME280;43627;42.728;23.256;2022-07-23T12:40:58;95064.13;;;36.23;17.07
57801;BME280;43627;42.728;23.256;2022-07-23T12:43:35;95058.59;;;36.11;16.37
57801;BME280;43627;42.728;23.256;2022-07-23T12:46:07;95044.00;;;36.46;16.33
57801;BME280;43627;42.728;23.256;2022-07-23T12:53:32;95053.66;;;36.12;16.94
57801;BME280;43627;42.728;23.256;2022-07-23T12:56:01;95050.44;;;36.33;15.99
57801;BME280;43627;42.728;23.256;2022-07-23T12:58:48;95052.66;;;36.34;14.82
57801;BME280;43627;42.728;23.256;2022-07-23T13:04:10;95044.34;;;36.39;15.30
57801;BME280;43627;42.728;23.256;2022-07-23T13:06:57;95045.44;;;36.18;15.51
57801;BME280;43627;42.728;23.256;2022-07-23T13:09:30;95051.81;;;36.46;15.88
57801;BME280;43627;42.728;23.256;2022-07-23T13:12:01;95034.63;;;36.14;15.97
57801;BME280;43627;42.728;23.256;2022-07-23T13:14:31;95040.78;;;36.24;14.83
57801;BME280;43627;42.728;23.256;2022-07-23T13:16:58;95044.56;;;36.29;17.01
57801;BME280;43627;42.728;23.256;2022-07-23T13:19:25;95039.97;;;36.22;14.89
57801;BME280;43627;42.728;23.256;2022-07-23T13:21:53;95035.13;;;36.24;16.21
57801;BME280;43627;42.728;23.256;2022-07-23T13:24:21;95039.72;;;36.45;16.51
57801;BME280;43627;42.728;23.256;2022-07-23T13:26:47;95034.66;;;36.44;14.96
57801;BME280;43627;42.728;23.256;2022-07-23T13:29:17;95029.50;;;35.97;14.76
57801;BME280;43627;42.728;23.256;2022-07-23T13:31:46;95038.34;;;36.32;15.22
57801;BME280;43627;42.728;23.256;2022-07-23T13:34:14;95024.34;;;36.50;13.21
57801;BME280;43627;42.728;23.256;2022-07-23T13:36:41;95015.00;;;36.34;12.86
57801;BME280;43627;42.728;23.256;2022-07-23T13:39:10;95024.63;;;36.13;13.38
57801;BME280;43627;42.728;23.256;2022-07-23T13:41:38;95023.34;;;36.16;14.04
57801;BME280;43627;42.728;23.256;2022-07-23T13:44:05;95022.06;;;36.19;14.64
57801;BME280;43627;42.728;23.256;2022-07-23T13:46:32;95014.84;;;36.16;14.47
57801;BME280;43627;42.728;23.256;2022-07-23T13:49:00;95016.53;;;36.08;13.84
57801;BME280;43627;42.728;23.256;2022-07-23T13:51:28;95014.66;;;36.12;13.36